Terminal Aerodrome Forecast
Issued by NWS

Home | Current Version | Previous Version | Text Only | Print | Product List | Glossary On
Versions: 1 2 3 4 5 6 7 8 9 10 11 12 13 14
000
FTUS46 KLOX 252340
TAFPMD
TAF
KPMD 252340Z 2600/2624 23012KT P6SM SKC
     FM260400 22008KT P6SM SKC
     FM262100 24012KT P6SM SCT250
     FM262300 24018G25KT P6SM SCT250=

USA.gov is the U.S. government's official web portal to all federal, state and local government web resources and services.